Meishomaru — JD3044 — position and weather

sailwx.info

Track history (hours):
 
Tides and Currents Weather Stations Pressure Air Temp Water Temp Dewpoint Dewpoint Depression Visibility Wind Speed Wind Dir Waves Ship Positions

Meishomaru

Last reported at 2015-Feb-27 12:33 UTC. Time now 2015-Feb-28 05:22 UTC.
Position N 34°37' E 134°56'.

Length 68 m; draft 4 m.

Type: Tanker. MMSI: 431001216.

Date/timePositionNaut miles runAvg speedWind from/ knotsBaromVisibWave heightAir tempDewpointWater temp
2015-Feb-27 12:33N 34°37' E 134°56'9 8.8
2015-Feb-27 11:33N 34°34' E 135°05'1110.8
2015-Feb-27 10:32N 34°24' E 135°02'1010.0
2015-Feb-27 09:33N 34°14' E 134°59'14 9.7
2015-Feb-27 08:06N 34°00' E 135°02'236 8.9
2015-Feb-26 05:28N 35°05' E 139°37'1112.1
2015-Feb-26 04:33N 35°13' E 139°46'1211.8
2015-Feb-26 03:33N 35°25' E 139°43'7 6.9
2015-Feb-26 02:33N 35°31' E 139°46'3 0.4
2015-Feb-25 18:13N 35°29' E 139°49'0 0.0
2015-Feb-25 17:25N 35°29' E 139°49'0 0.0
2015-Feb-25 16:25N 35°29' E 139°49'0 0.0
2015-Feb-25 15:31N 35°29' E 139°49'0 0.0
2015-Feb-25 11:31N 35°29' E 139°49'0 0.0
2015-Feb-25 10:25N 35°29' E 139°49'910.2
2015-Feb-25 09:33N 35°21' E 139°45'1111.3
2015-Feb-25 08:34N 35°10' E 139°46'1111.3
2015-Feb-25 07:33N 35°01' E 139°38'235 9.8
2015-Feb-24 07:28N 34°08' E 134°60'1212.7
2015-Feb-24 06:32N 34°20' E 134°59'1212.1
2015-Feb-24 05:33N 34°27' E 135°10'1211.8
2015-Feb-24 04:33N 34°33' E 135°23'2 0.4
2015-Feb-23 23:06N 34°33' E 135°25'3 5.4
2015-Feb-23 22:33N 34°33' E 135°22'0 0.1
2015-Feb-23 21:30N 34°33' E 135°22'0 0.0
2015-Feb-23 20:30N 34°33' E 135°22'8 8.6
2015-Feb-23 19:33N 34°28' E 135°13'1211.4
2015-Feb-23 18:33N 34°21' E 135°03'1010.3
2015-Feb-23 17:33N 34°11' E 134°59'  
2015-Feb-21 10:34N 35°17' E 139°45'10 9.9
2015-Feb-21 09:33N 35°27' E 139°47'8 1.2
2015-Feb-21 03:29N 35°30' E 139°56'1011.2
2015-Feb-21 02:33N 35°23' E 139°46'1010.4
2015-Feb-21 01:33N 35°13' E 139°47'1111.1
2015-Feb-21 00:33N 35°03' E 139°41'  
2015-Feb-18 08:32N 34°07' E 134°60'1212.4
2015-Feb-18 07:33N 34°19' E 134°59'1211.9
2015-Feb-18 06:32N 34°27' E 135°10'1111.5
2015-Feb-18 05:33N 34°33' E 135°22'2 0.3
2015-Feb-17 23:29N 34°33' E 135°24'2 1.6
2015-Feb-17 22:20N 34°32' E 135°22'0 0.0
2015-Feb-17 21:26N 34°32' E 135°22'0 0.0
2015-Feb-17 20:32N 34°32' E 135°22'0 0.0
2015-Feb-17 19:32N 34°32' E 135°22'0 0.0
2015-Feb-17 17:14N 34°32' E 135°22'0 0.0
2015-Feb-17 16:32N 34°32' E 135°22'0 0.0
2015-Feb-17 15:26N 34°32' E 135°22'0 0.0
2015-Feb-17 14:32N 34°32' E 135°22'0 0.0
2015-Feb-17 13:26N 34°32' E 135°22'  
Track history (hours):
 
Tides and Currents Weather Stations Pressure Air Temp Water Temp Dewpoint Dewpoint Depression Visibility Wind Speed Wind Dir Waves Ship Positions

Meishomaru

Last reported at 2015-Feb-27 12:33 UTC. Time now 2015-Feb-28 05:22 UTC.
Position N 34°37' E 134°56'.

Length 68 m; draft 4 m.

Type: Tanker. MMSI: 431001216.

Date/timePositionNaut miles runAvg speedWind from/ knotsBaromVisibWave heightAir tempDewpointWater temp
2015-Feb-27 12:33N 34°37' E 134°56'9 8.8
2015-Feb-27 11:33N 34°34' E 135°05'1110.8
2015-Feb-27 10:32N 34°24' E 135°02'1010.0
2015-Feb-27 09:33N 34°14' E 134°59'14 9.7
2015-Feb-27 08:06N 34°00' E 135°02'236 8.9
2015-Feb-26 05:28N 35°05' E 139°37'1112.1
2015-Feb-26 04:33N 35°13' E 139°46'1211.8
2015-Feb-26 03:33N 35°25' E 139°43'7 6.9
2015-Feb-26 02:33N 35°31' E 139°46'3 0.4
2015-Feb-25 18:13N 35°29' E 139°49'0 0.0
2015-Feb-25 17:25N 35°29' E 139°49'0 0.0
2015-Feb-25 16:25N 35°29' E 139°49'0 0.0
2015-Feb-25 15:31N 35°29' E 139°49'0 0.0
2015-Feb-25 11:31N 35°29' E 139°49'0 0.0
2015-Feb-25 10:25N 35°29' E 139°49'910.2
2015-Feb-25 09:33N 35°21' E 139°45'1111.3
2015-Feb-25 08:34N 35°10' E 139°46'1111.3
2015-Feb-25 07:33N 35°01' E 139°38'235 9.8
2015-Feb-24 07:28N 34°08' E 134°60'1212.7
2015-Feb-24 06:32N 34°20' E 134°59'1212.1
2015-Feb-24 05:33N 34°27' E 135°10'1211.8
2015-Feb-24 04:33N 34°33' E 135°23'2 0.4
2015-Feb-23 23:06N 34°33' E 135°25'3 5.4
2015-Feb-23 22:33N 34°33' E 135°22'0 0.1
2015-Feb-23 21:30N 34°33' E 135°22'0 0.0
2015-Feb-23 20:30N 34°33' E 135°22'8 8.6
2015-Feb-23 19:33N 34°28' E 135°13'1211.4
2015-Feb-23 18:33N 34°21' E 135°03'1010.3
2015-Feb-23 17:33N 34°11' E 134°59'  
2015-Feb-21 10:34N 35°17' E 139°45'10 9.9
2015-Feb-21 09:33N 35°27' E 139°47'8 1.2
2015-Feb-21 03:29N 35°30' E 139°56'1011.2
2015-Feb-21 02:33N 35°23' E 139°46'1010.4
2015-Feb-21 01:33N 35°13' E 139°47'1111.1
2015-Feb-21 00:33N 35°03' E 139°41'  
2015-Feb-18 08:32N 34°07' E 134°60'1212.4
2015-Feb-18 07:33N 34°19' E 134°59'1211.9
2015-Feb-18 06:32N 34°27' E 135°10'1111.5
2015-Feb-18 05:33N 34°33' E 135°22'2 0.3
2015-Feb-17 23:29N 34°33' E 135°24'2 1.6
2015-Feb-17 22:20N 34°32' E 135°22'0 0.0
2015-Feb-17 21:26N 34°32' E 135°22'0 0.0
2015-Feb-17 20:32N 34°32' E 135°22'0 0.0
2015-Feb-17 19:32N 34°32' E 135°22'0 0.0
2015-Feb-17 17:14N 34°32' E 135°22'0 0.0
2015-Feb-17 16:32N 34°32' E 135°22'0 0.0
2015-Feb-17 15:26N 34°32' E 135°22'0 0.0
2015-Feb-17 14:32N 34°32' E 135°22'0 0.0
2015-Feb-17 13:26N 34°32' E 135°22'  

Dump ship's entire track history